RYR5RT LIBD-LATI
Flight info
| Callsign | RYR5RT |
|---|---|
| Flight time | 0h 34m |
| Altitude | 29000 |
| Route | DOLON DCT KAPPO DCT GOKEL M26 DITAN |
| Aircraft | B738/M-SDE2E3FGHIRWXY/LB1 |
Departure
| Time | 2026-04-26 19:41 |
|---|---|
| Airport | Bari Karol Wojtyła International Airport (LIBD) |
Arrival
| Time | 2026-04-26 20:15 |
|---|---|
| Airport | Tirana International Airport Mother Teresa (LATI) |
| Time | Latitude | Longitude | Altitude | Speed | Heading |
|---|---|---|---|---|---|
| 2026-04-26 19:15 | 41.13550 | 16.76396 | 147 ft | 0 kts | 160° |
| 2026-04-26 19:34 | 41.13551 | 16.76396 | 147 ft | 2 kts | 160° |
| 2026-04-26 19:34 | 41.13566 | 16.76389 | 147 ft | 2 kts | 161° |
| 2026-04-26 19:35 | 41.13582 | 16.76381 | 147 ft | 2 kts | 161° |
| 2026-04-26 19:35 | 41.13597 | 16.76374 | 146 ft | 2 kts | 152° |
| 2026-04-26 19:35 | 41.13609 | 16.76360 | 147 ft | 2 kts | 90° |
| 2026-04-26 19:35 | 41.13609 | 16.76349 | 147 ft | 1 kts | 70° |
| 2026-04-26 19:37 | 41.13614 | 16.76370 | 146 ft | 10 kts | 70° |
| 2026-04-26 19:37 | 41.13646 | 16.76490 | 141 ft | 12 kts | 65° |
| 2026-04-26 19:38 | 41.13720 | 16.76553 | 138 ft | 13 kts | 11° |
| 2026-04-26 19:38 | 41.13805 | 16.76574 | 137 ft | 13 kts | 47° |
| 2026-04-26 19:38 | 41.13848 | 16.76696 | 133 ft | 17 kts | 66° |
| 2026-04-26 19:38 | 41.13896 | 16.76853 | 128 ft | 19 kts | 69° |
| 2026-04-26 19:39 | 41.13944 | 16.77025 | 125 ft | 21 kts | 71° |
| 2026-04-26 19:39 | 41.13994 | 16.77219 | 122 ft | 20 kts | 70° |
| 2026-04-26 19:39 | 41.14038 | 16.77359 | 119 ft | 14 kts | 52° |
| 2026-04-26 19:39 | 41.14135 | 16.77413 | 113 ft | 16 kts | 14° |
| 2026-04-26 19:40 | 41.14205 | 16.77391 | 112 ft | 10 kts | 308° |
| 2026-04-26 19:40 | 41.14197 | 16.77277 | 113 ft | 19 kts | 250° |
| 2026-04-26 19:40 | 41.14079 | 16.76857 | 130 ft | 88 kts | 249° |
| 2026-04-26 19:40 | 41.13776 | 16.75798 | 163 ft | 157 kts | 249° |
| 2026-04-26 19:41 | 41.13357 | 16.74281 | 644 ft | 186 kts | 249° |
| 2026-04-26 19:41 | 41.12902 | 16.72611 | 1484 ft | 200 kts | 251° |
| 2026-04-26 19:41 | 41.12407 | 16.70838 | 2321 ft | 211 kts | 251° |
| 2026-04-26 19:41 | 41.12229 | 16.70214 | 2547 ft | 214 kts | 251° |
| 2026-04-26 19:42 | 41.11319 | 16.67084 | 3858 ft | 221 kts | 251° |
| 2026-04-26 19:42 | 41.11015 | 16.65109 | 4575 ft | 221 kts | 280° |
| 2026-04-26 19:42 | 41.11684 | 16.63204 | 4958 ft | 244 kts | 315° |
| 2026-04-26 19:42 | 41.13237 | 16.62141 | 5419 ft | 262 kts | 352° |
| 2026-04-26 19:43 | 41.15042 | 16.62492 | 6319 ft | 268 kts | 22° |
| 2026-04-26 19:43 | 41.16603 | 16.63838 | 7245 ft | 276 kts | 45° |
| 2026-04-26 19:43 | 41.17788 | 16.65877 | 8184 ft | 278 kts | 53° |
| 2026-04-26 19:43 | 41.18898 | 16.67970 | 9091 ft | 282 kts | 53° |
| 2026-04-26 19:44 | 41.20037 | 16.70134 | 10004 ft | 285 kts | 53° |
| 2026-04-26 19:44 | 41.21200 | 16.72325 | 10620 ft | 299 kts | 53° |
| 2026-04-26 19:44 | 41.22451 | 16.74667 | 10846 ft | 324 kts | 53° |
| 2026-04-26 19:44 | 41.23788 | 16.77163 | 11429 ft | 335 kts | 54° |
| 2026-04-26 19:45 | 41.24819 | 16.79949 | 12186 ft | 342 kts | 75° |
| 2026-04-26 19:45 | 41.25002 | 16.83082 | 13013 ft | 347 kts | 97° |
| 2026-04-26 19:45 | 41.24487 | 16.86246 | 13828 ft | 351 kts | 102° |
| 2026-04-26 19:45 | 41.24011 | 16.89475 | 14493 ft | 357 kts | 98° |
| 2026-04-26 19:46 | 41.23642 | 16.92736 | 15135 ft | 363 kts | 97° |
| 2026-04-26 19:46 | 41.23296 | 16.96075 | 15801 ft | 369 kts | 97° |
| 2026-04-26 19:46 | 41.22945 | 16.99492 | 16465 ft | 374 kts | 98° |
| 2026-04-26 19:46 | 41.22581 | 17.02953 | 17119 ft | 380 kts | 98° |
| 2026-04-26 19:47 | 41.22206 | 17.06433 | 17771 ft | 386 kts | 98° |
| 2026-04-26 19:47 | 41.22073 | 17.07646 | 17986 ft | 388 kts | 98° |
| 2026-04-26 19:47 | 41.21413 | 17.13572 | 19171 ft | 389 kts | 98° |
| 2026-04-26 19:47 | 41.21015 | 17.17085 | 20002 ft | 386 kts | 98° |
| 2026-04-26 19:48 | 41.20612 | 17.20621 | 20797 ft | 384 kts | 98° |
| 2026-04-26 19:48 | 41.20210 | 17.24131 | 21512 ft | 385 kts | 98° |
| 2026-04-26 19:48 | 41.19810 | 17.27616 | 22221 ft | 385 kts | 98° |
| 2026-04-26 19:48 | 41.19406 | 17.31114 | 22909 ft | 385 kts | 98° |
| 2026-04-26 19:49 | 41.18995 | 17.34675 | 23104 ft | 386 kts | 98° |
| 2026-04-26 19:49 | 41.18591 | 17.38155 | 23106 ft | 384 kts | 98° |
| 2026-04-26 19:49 | 41.18183 | 17.41668 | 23118 ft | 384 kts | 98° |
| 2026-04-26 19:49 | 41.17772 | 17.45196 | 23125 ft | 384 kts | 98° |
| 2026-04-26 19:50 | 41.17365 | 17.48678 | 23122 ft | 385 kts | 98° |
| 2026-04-26 19:50 | 41.16956 | 17.52170 | 23121 ft | 385 kts | 98° |
| 2026-04-26 19:50 | 41.16678 | 17.54532 | 23130 ft | 386 kts | 98° |
| 2026-04-26 19:50 | 41.16126 | 17.59223 | 23119 ft | 386 kts | 98° |
| 2026-04-26 19:51 | 41.15849 | 17.61566 | 23119 ft | 386 kts | 98° |
| 2026-04-26 19:51 | 41.15429 | 17.65114 | 23115 ft | 387 kts | 98° |
| 2026-04-26 19:51 | 41.15014 | 17.68612 | 23113 ft | 387 kts | 99° |
| 2026-04-26 19:51 | 41.14593 | 17.72151 | 23115 ft | 387 kts | 99° |
| 2026-04-26 19:52 | 41.14174 | 17.75665 | 23116 ft | 386 kts | 99° |
| 2026-04-26 19:52 | 41.13755 | 17.79169 | 23112 ft | 386 kts | 99° |
| 2026-04-26 19:52 | 41.13331 | 17.82705 | 23113 ft | 386 kts | 99° |
| 2026-04-26 19:52 | 41.12910 | 17.86204 | 23113 ft | 386 kts | 99° |
| 2026-04-26 19:53 | 41.12627 | 17.88552 | 23116 ft | 386 kts | 99° |
| 2026-04-26 19:53 | 41.12061 | 17.93229 | 23115 ft | 386 kts | 99° |
| 2026-04-26 19:53 | 41.11639 | 17.96709 | 23110 ft | 386 kts | 99° |
| 2026-04-26 19:53 | 41.11208 | 18.00261 | 23115 ft | 386 kts | 99° |
| 2026-04-26 19:54 | 41.10784 | 18.03741 | 23113 ft | 386 kts | 99° |
| 2026-04-26 19:54 | 41.10350 | 18.07283 | 23114 ft | 387 kts | 99° |
| 2026-04-26 19:54 | 41.09921 | 18.10778 | 23114 ft | 387 kts | 99° |
| 2026-04-26 19:54 | 41.09485 | 18.14321 | 23116 ft | 387 kts | 99° |
| 2026-04-26 19:55 | 41.09053 | 18.17826 | 23115 ft | 387 kts | 99° |
| 2026-04-26 19:55 | 41.08627 | 18.21348 | 23112 ft | 387 kts | 97° |
| 2026-04-26 19:55 | 41.08657 | 18.24880 | 23025 ft | 376 kts | 78° |
| 2026-04-26 19:55 | 41.09411 | 18.28102 | 22850 ft | 366 kts | 63° |
| 2026-04-26 19:56 | 41.10650 | 18.31045 | 22521 ft | 361 kts | 57° |
| 2026-04-26 19:56 | 41.11928 | 18.33874 | 22112 ft | 360 kts | 57° |
| 2026-04-26 19:56 | 41.13220 | 18.36744 | 21724 ft | 359 kts | 57° |
| 2026-04-26 19:56 | 41.14493 | 18.39593 | 21388 ft | 357 kts | 57° |
| 2026-04-26 19:57 | 41.15743 | 18.42407 | 21053 ft | 355 kts | 57° |
| 2026-04-26 19:57 | 41.16979 | 18.45202 | 20709 ft | 353 kts | 57° |
| 2026-04-26 19:57 | 41.18217 | 18.48012 | 20378 ft | 351 kts | 58° |
| 2026-04-26 19:57 | 41.19446 | 18.50808 | 20040 ft | 349 kts | 58° |
| 2026-04-26 19:58 | 41.20672 | 18.53604 | 19739 ft | 347 kts | 58° |
| 2026-04-26 19:58 | 41.21885 | 18.56372 | 19416 ft | 345 kts | 58° |
| 2026-04-26 19:58 | 41.23084 | 18.59112 | 19101 ft | 344 kts | 58° |
| 2026-04-26 19:58 | 41.24273 | 18.61831 | 18791 ft | 342 kts | 58° |
| 2026-04-26 19:59 | 41.25470 | 18.64571 | 18488 ft | 340 kts | 58° |
| 2026-04-26 19:59 | 41.26657 | 18.67291 | 18123 ft | 336 kts | 58° |
| 2026-04-26 19:59 | 41.27811 | 18.69941 | 17701 ft | 333 kts | 58° |
| 2026-04-26 19:59 | 41.28965 | 18.72590 | 17240 ft | 330 kts | 58° |
| 2026-04-26 20:00 | 41.30116 | 18.75234 | 16835 ft | 327 kts | 58° |
| 2026-04-26 20:00 | 41.31250 | 18.77843 | 16423 ft | 323 kts | 59° |
| 2026-04-26 20:00 | 41.32362 | 18.80402 | 16022 ft | 320 kts | 59° |
| 2026-04-26 20:00 | 41.33477 | 18.82970 | 15617 ft | 317 kts | 59° |
| 2026-04-26 20:01 | 41.34568 | 18.85485 | 15222 ft | 314 kts | 59° |
| 2026-04-26 20:01 | 41.35662 | 18.88010 | 14830 ft | 311 kts | 59° |
| 2026-04-26 20:01 | 41.36726 | 18.90467 | 14452 ft | 308 kts | 59° |
| 2026-04-26 20:01 | 41.37801 | 18.92953 | 14069 ft | 306 kts | 59° |
| 2026-04-26 20:02 | 41.38848 | 18.95375 | 13666 ft | 303 kts | 59° |
| 2026-04-26 20:02 | 41.39897 | 18.97803 | 13250 ft | 300 kts | 59° |
| 2026-04-26 20:02 | 41.40925 | 19.00184 | 12854 ft | 297 kts | 59° |
| 2026-04-26 20:02 | 41.41621 | 19.01798 | 12592 ft | 295 kts | 60° |
| 2026-04-26 20:03 | 41.42967 | 19.04921 | 12086 ft | 290 kts | 60° |
| 2026-04-26 20:03 | 41.43968 | 19.07247 | 11691 ft | 288 kts | 60° |
| 2026-04-26 20:03 | 41.44957 | 19.09545 | 11277 ft | 286 kts | 60° |
| 2026-04-26 20:03 | 41.45947 | 19.11847 | 10895 ft | 284 kts | 60° |
| 2026-04-26 20:04 | 41.46917 | 19.14106 | 10551 ft | 280 kts | 60° |
| 2026-04-26 20:04 | 41.47874 | 19.16336 | 10227 ft | 276 kts | 61° |
| 2026-04-26 20:04 | 41.48821 | 19.18543 | 9912 ft | 272 kts | 61° |
| 2026-04-26 20:04 | 41.49756 | 19.20724 | 9521 ft | 269 kts | 61° |
| 2026-04-26 20:05 | 41.50680 | 19.22883 | 9164 ft | 268 kts | 61° |
| 2026-04-26 20:05 | 41.51613 | 19.25064 | 8758 ft | 271 kts | 60° |
| 2026-04-26 20:05 | 41.52542 | 19.27236 | 8462 ft | 270 kts | 60° |
| 2026-04-26 20:05 | 41.53465 | 19.29397 | 8167 ft | 269 kts | 60° |
| 2026-04-26 20:06 | 41.54392 | 19.31568 | 7877 ft | 268 kts | 60° |
| 2026-04-26 20:06 | 41.55317 | 19.33735 | 7592 ft | 267 kts | 60° |
| 2026-04-26 20:06 | 41.56235 | 19.35889 | 7304 ft | 265 kts | 60° |
| 2026-04-26 20:06 | 41.57136 | 19.38004 | 7028 ft | 264 kts | 60° |
| 2026-04-26 20:07 | 41.58042 | 19.40132 | 6748 ft | 263 kts | 60° |
| 2026-04-26 20:07 | 41.58950 | 19.42266 | 6471 ft | 261 kts | 60° |
| 2026-04-26 20:07 | 41.59841 | 19.44362 | 6178 ft | 260 kts | 60° |
| 2026-04-26 20:07 | 41.60738 | 19.46471 | 5881 ft | 259 kts | 60° |
| 2026-04-26 20:08 | 41.61620 | 19.48549 | 5595 ft | 259 kts | 60° |
| 2026-04-26 20:08 | 41.62504 | 19.50632 | 5298 ft | 258 kts | 60° |
| 2026-04-26 20:08 | 41.63384 | 19.52722 | 5143 ft | 252 kts | 62° |
| 2026-04-26 20:08 | 41.63834 | 19.54912 | 5061 ft | 242 kts | 83° |
| 2026-04-26 20:09 | 41.63979 | 19.57090 | 4980 ft | 227 kts | 83° |
| 2026-04-26 20:09 | 41.64127 | 19.59112 | 4868 ft | 213 kts | 83° |
| 2026-04-26 20:09 | 41.64269 | 19.61046 | 4765 ft | 201 kts | 82° |
| 2026-04-26 20:09 | 41.64404 | 19.62873 | 4625 ft | 198 kts | 82° |
| 2026-04-26 20:10 | 41.64554 | 19.64683 | 4412 ft | 194 kts | 82° |
| 2026-04-26 20:10 | 41.64606 | 19.66470 | 4282 ft | 194 kts | 98° |
| 2026-04-26 20:10 | 41.63912 | 19.67948 | 4326 ft | 195 kts | 145° |
| 2026-04-26 20:10 | 41.62582 | 19.68589 | 4133 ft | 208 kts | 166° |
| 2026-04-26 20:11 | 41.61104 | 19.69044 | 3755 ft | 223 kts | 164° |
| 2026-04-26 20:11 | 41.59615 | 19.69499 | 3451 ft | 216 kts | 171° |
| 2026-04-26 20:11 | 41.58143 | 19.69730 | 3142 ft | 216 kts | 173° |
| 2026-04-26 20:12 | 41.55265 | 19.70094 | 2733 ft | 199 kts | 176° |
| 2026-04-26 20:12 | 41.53887 | 19.70284 | 2489 ft | 192 kts | 173° |
| 2026-04-26 20:12 | 41.52565 | 19.70470 | 2123 ft | 193 kts | 173° |
| 2026-04-26 20:12 | 41.51267 | 19.70674 | 1905 ft | 182 kts | 173° |
| 2026-04-26 20:13 | 41.50041 | 19.70848 | 1656 ft | 173 kts | 173° |
| 2026-04-26 20:13 | 41.48870 | 19.71012 | 1434 ft | 166 kts | 174° |
| 2026-04-26 20:13 | 41.47735 | 19.71168 | 1217 ft | 161 kts | 174° |
| 2026-04-26 20:13 | 41.46640 | 19.71320 | 1008 ft | 155 kts | 175° |
| 2026-04-26 20:14 | 41.45583 | 19.71471 | 778 ft | 151 kts | 174° |
| 2026-04-26 20:14 | 41.44554 | 19.71614 | 589 ft | 150 kts | 174° |
| 2026-04-26 20:14 | 41.43498 | 19.71763 | 374 ft | 152 kts | 174° |
| 2026-04-26 20:14 | 41.42434 | 19.71930 | 136 ft | 154 kts | 174° |
| 2026-04-26 20:15 | 41.41473 | 19.72058 | 123 ft | 114 kts | 174° |
| 2026-04-26 20:15 | 41.40918 | 19.72129 | 130 ft | 52 kts | 173° |
| 2026-04-26 20:15 | 41.40715 | 19.72152 | 131 ft | 14 kts | 189° |
| 2026-04-26 20:15 | 41.40673 | 19.72047 | 128 ft | 14 kts | 256° |
| 2026-04-26 20:16 | 41.40649 | 19.71914 | 128 ft | 15 kts | 256° |
| 2026-04-26 20:16 | 41.40639 | 19.71785 | 128 ft | 14 kts | 296° |
| 2026-04-26 20:16 | 41.40728 | 19.71746 | 125 ft | 14 kts | 353° |
| 2026-04-26 20:16 | 41.40825 | 19.71731 | 127 ft | 15 kts | 354° |
| 2026-04-26 20:17 | 41.40936 | 19.71716 | 128 ft | 17 kts | 354° |
| 2026-04-26 20:17 | 41.41062 | 19.71700 | 128 ft | 19 kts | 354° |
| 2026-04-26 20:17 | 41.41198 | 19.71682 | 127 ft | 21 kts | 354° |
| 2026-04-26 20:17 | 41.41296 | 19.71669 | 122 ft | 22 kts | 354° |
| 2026-04-26 20:18 | 41.41504 | 19.71640 | 135 ft | 24 kts | 353° |
| 2026-04-26 20:18 | 41.41674 | 19.71616 | 135 ft | 25 kts | 354° |
| 2026-04-26 20:18 | 41.41848 | 19.71594 | 134 ft | 26 kts | 354° |
| 2026-04-26 20:18 | 41.42021 | 19.71572 | 135 ft | 24 kts | 354° |
| 2026-04-26 20:19 | 41.42182 | 19.71551 | 132 ft | 23 kts | 354° |
| 2026-04-26 20:19 | 41.42312 | 19.71534 | 129 ft | 12 kts | 354° |
| 2026-04-26 20:19 | 41.42343 | 19.71489 | 130 ft | 7 kts | 269° |
| 2026-04-26 20:19 | 41.42340 | 19.71465 | 132 ft | 0 kts | 263° |